Terminal Aerodrome Forecast
Issued by NWS

Home | Current Version | Previous Version | Text Only | Print | Product List | Glossary On
Versions: 1 2 3 4 5 6 7 8 9 10 11 12 13 14 15 16 17 18 19 20 21 22 23 24
751
FTUS46 KEKA 152322
TAFUKI
TAF
KUKI 152322Z 1600/1624 28005KT P6SM BKN250
     FM160300 29003KT P6SM BKN030
     FM160800 34006KT P6SM -RA OVC025
     FM161400 VRB03KT 5SM BR VCSH OVC010
     FM161900 30010KT P6SM SCT030 SCT100
     AMD NOT SKED=

USA.gov is the U.S. government's official web portal to all federal, state and local government web resources and services.